createdAt,value
2022-10-17T00:00:39.330Z,6.05
2022-10-17T00:03:07.885Z,6.05
2022-10-17T00:05:40.978Z,6.22
2022-10-17T00:08:09.808Z,6.22
2022-10-17T00:10:38.519Z,6.18
2022-10-17T00:13:07.492Z,6.10
2022-10-17T00:15:36.194Z,5.60
2022-10-17T00:18:06.160Z,5.57
2022-10-17T00:20:36.448Z,6.03
2022-10-17T00:23:04.928Z,6.72
2022-10-17T00:25:33.295Z,6.57
2022-10-17T00:28:01.757Z,6.45
2022-10-17T00:30:30.267Z,7.07
2022-10-17T00:32:58.711Z,6.45
2022-10-17T00:35:28.595Z,6.32
2022-10-17T00:37:57.074Z,6.60
2022-10-17T00:40:26.127Z,6.05
2022-10-17T00:42:54.552Z,5.78
2022-10-17T00:45:25.042Z,6.25
2022-10-17T00:48:02.234Z,7.00
2022-10-17T00:50:33.182Z,6.68
2022-10-17T00:53:05.638Z,6.25
2022-10-17T00:55:39.499Z,6.22
2022-10-17T00:58:08.228Z,7.25
2022-10-17T01:00:37.345Z,6.72
2022-10-17T01:03:06.340Z,7.32
2022-10-17T01:05:39.009Z,7.07
2022-10-17T01:08:08.328Z,7.18
2022-10-17T01:10:46.074Z,7.13
2022-10-17T01:13:20.979Z,6.93
2022-10-17T01:16:01.258Z,7.05
2022-10-17T01:18:41.731Z,7.53
2022-10-17T01:21:32.096Z,7.25
2022-10-17T01:24:30.396Z,6.68
2022-10-17T01:27:27.831Z,7.40
2022-10-17T01:30:30.911Z,7.38
2022-10-17T01:33:10.540Z,7.05
2022-10-17T01:35:43.410Z,6.05
2022-10-17T01:38:15.440Z,6.70
2022-10-17T01:40:50.696Z,6.85
2022-10-17T01:43:25.005Z,6.65
2022-10-17T01:45:59.014Z,6.50
2022-10-17T01:48:35.222Z,6.93
2022-10-17T01:51:10.009Z,6.00
2022-10-17T01:53:46.007Z,6.32
2022-10-17T01:56:15.938Z,5.97
2022-10-17T01:58:50.394Z,6.80
2022-10-17T02:01:22.485Z,6.93
2022-10-17T02:03:55.556Z,6.78
2022-10-17T02:06:25.598Z,7.43
2022-10-17T02:08:54.085Z,7.55
2022-10-17T02:11:25.547Z,7.38
2022-10-17T02:14:15.944Z,7.00
2022-10-17T02:16:53.179Z,7.32
2022-10-17T02:19:51.518Z,7.80
2022-10-17T02:22:31.468Z,7.32
2022-10-17T02:25:07.641Z,7.32
2022-10-17T02:27:44.972Z,6.68
2022-10-17T02:30:22.479Z,7.50
2022-10-17T02:32:56.890Z,7.20
2022-10-17T02:35:31.781Z,6.28
2022-10-17T02:38:02.196Z,6.78
2022-10-17T02:40:32.601Z,6.60
2022-10-17T02:43:04.149Z,7.05
2022-10-17T02:45:36.217Z,6.40
2022-10-17T02:48:10.144Z,6.75
2022-10-17T02:50:50.400Z,7.30
2022-10-17T02:53:26.599Z,6.03
2022-10-17T02:55:59.238Z,6.88
2022-10-17T02:58:32.961Z,7.00
2022-10-17T03:01:03.516Z,5.95
2022-10-17T03:03:33.401Z,7.05
2022-10-17T03:06:07.101Z,6.55
2022-10-17T03:08:35.726Z,6.38
2022-10-17T03:11:04.773Z,6.45
2022-10-17T03:13:36.287Z,5.57
2022-10-17T03:16:07.861Z,6.60
2022-10-17T03:18:39.287Z,6.28
2022-10-17T03:21:09.413Z,6.20
2022-10-17T03:23:40.021Z,6.22
2022-10-17T03:26:09.331Z,5.97
2022-10-17T03:28:38.532Z,6.07
2022-10-17T03:31:11.511Z,7.75
2022-10-17T03:33:40.928Z,6.35
2022-10-17T03:36:12.805Z,6.45
2022-10-17T03:38:41.898Z,6.47
2022-10-17T03:41:10.878Z,6.45
2022-10-17T03:43:41.103Z,6.70
2022-10-17T03:46:10.544Z,6.95
2022-10-17T03:48:39.841Z,6.45
2022-10-17T03:51:11.615Z,6.47
2022-10-17T03:53:49.145Z,6.15
2022-10-17T03:56:19.498Z,6.82
2022-10-17T03:58:55.833Z,6.97
2022-10-17T04:01:25.473Z,6.32
2022-10-17T04:03:56.498Z,6.88
2022-10-17T04:06:28.035Z,6.07
2022-10-17T04:08:56.646Z,5.25
2022-10-17T04:11:34.492Z,5.70
2022-10-17T04:14:04.463Z,4.95
2022-10-17T04:16:33.642Z,5.50
2022-10-17T04:19:06.047Z,5.68
2022-10-17T04:21:42.838Z,5.57
2022-10-17T04:24:13.350Z,6.55
2022-10-17T04:26:56.667Z,6.35
2022-10-17T04:29:29.043Z,6.15
2022-10-17T04:32:29.267Z,5.70
2022-10-17T04:35:06.576Z,6.43
2022-10-17T04:37:36.733Z,6.40
2022-10-17T04:40:12.406Z,5.88
2022-10-17T04:42:40.998Z,6.15
2022-10-17T04:45:12.134Z,5.72
2022-10-17T04:47:42.061Z,5.90
2022-10-17T04:50:11.041Z,5.88
2022-10-17T04:52:43.281Z,5.32
2022-10-17T04:55:11.883Z,5.75
2022-10-17T04:57:40.857Z,5.60
2022-10-17T05:00:21.686Z,6.55
2022-10-17T05:03:07.324Z,6.25
2022-10-17T05:05:41.559Z,5.88
2022-10-17T05:08:13.112Z,6.00
2022-10-17T05:10:43.957Z,6.80
2022-10-17T05:13:12.709Z,5.32
2022-10-17T05:15:42.280Z,5.72
2022-10-17T05:18:11.224Z,6.22
2022-10-17T05:23:08.614Z,5.40
2022-10-17T05:25:42.974Z,5.82
2022-10-17T05:28:11.460Z,6.40
2022-10-17T05:30:42.436Z,6.20
2022-10-17T05:33:11.727Z,5.53
2022-10-17T05:35:41.771Z,5.43
2022-10-17T05:38:10.448Z,5.97
2022-10-17T05:40:42.554Z,6.00
2022-10-17T05:43:11.183Z,5.82
2022-10-17T05:45:39.697Z,5.10
2022-10-17T05:48:11.384Z,5.60
2022-10-17T05:50:40.052Z,5.18
2022-10-17T05:53:17.227Z,5.35
2022-10-17T05:56:02.240Z,5.47
2022-10-17T05:58:49.647Z,5.38
2022-10-17T06:01:30.832Z,4.68
2022-10-17T06:03:59.918Z,5.18
2022-10-17T06:06:28.475Z,5.10
2022-10-17T06:08:59.640Z,5.32
2022-10-17T06:11:34.527Z,5.25
2022-10-17T06:14:03.655Z,5.00
2022-10-17T06:16:34.730Z,5.70
2022-10-17T06:19:03.284Z,4.90
2022-10-17T06:21:34.859Z,5.82
2022-10-17T06:24:09.345Z,4.68
2022-10-17T06:26:43.465Z,5.10
2022-10-17T06:29:14.691Z,5.00
2022-10-17T06:32:02.715Z,5.43
2022-10-17T06:34:37.045Z,4.97
2022-10-17T06:37:05.734Z,5.28
2022-10-17T06:39:38.932Z,5.72
2022-10-17T06:42:13.842Z,5.22
2022-10-17T06:45:09.928Z,5.10
2022-10-17T06:48:04.620Z,5.25
2022-10-17T06:50:44.988Z,5.38
2022-10-17T06:53:27.350Z,4.82
2022-10-17T06:56:31.282Z,5.20
2022-10-17T06:59:19.991Z,5.00
2022-10-17T07:02:03.671Z,4.72
2022-10-17T07:04:32.444Z,5.10
2022-10-17T07:07:03.330Z,5.68
2022-10-17T07:09:34.292Z,8.20
2022-10-17T07:14:33.168Z,5.22
2022-10-17T07:17:02.584Z,5.40
2022-10-17T07:19:33.415Z,4.95
2022-10-17T07:22:01.947Z,5.50
2022-10-17T07:24:31.747Z,5.15
2022-10-17T07:27:09.200Z,5.00
2022-10-17T07:29:39.459Z,4.72
2022-10-17T07:32:20.578Z,5.45
2022-10-17T07:34:49.440Z,5.15
2022-10-17T07:37:17.909Z,5.68
2022-10-17T07:39:53.545Z,4.75
2022-10-17T07:42:22.038Z,6.22
2022-10-17T07:44:52.882Z,4.60
2022-10-17T07:47:22.495Z,8.48
2022-10-17T07:49:52.000Z,4.53
2022-10-17T07:52:20.492Z,4.82
2022-10-17T07:54:48.891Z,4.82
2022-10-17T07:57:17.324Z,5.28
2022-10-17T07:59:45.772Z,6.07
2022-10-17T08:02:20.123Z,4.82
2022-10-17T08:04:48.604Z,5.38
2022-10-17T08:07:24.128Z,5.53
2022-10-17T08:09:58.504Z,5.25
2022-10-17T08:12:27.623Z,5.63
2022-10-17T08:14:56.563Z,5.40
2022-10-17T08:17:26.366Z,4.90
2022-10-17T08:19:54.971Z,5.63
2022-10-17T08:22:23.548Z,5.00
2022-10-17T08:24:52.108Z,5.65
2022-10-17T08:27:24.376Z,6.05
2022-10-17T08:29:54.364Z,5.25
2022-10-17T08:32:25.074Z,5.80
2022-10-17T08:34:55.692Z,5.45
2022-10-17T08:37:24.627Z,5.30
2022-10-17T08:42:42.304Z,5.80
2022-10-17T08:45:18.133Z,5.88
2022-10-17T08:47:48.827Z,6.65
2022-10-17T08:50:28.667Z,6.32
2022-10-17T08:53:01.409Z,6.68
2022-10-17T08:55:34.700Z,6.75
2022-10-17T08:58:03.378Z,6.13
2022-10-17T09:00:33.631Z,7.22
2022-10-17T09:03:17.391Z,7.65
2022-10-17T09:05:54.576Z,7.20
2022-10-17T09:08:35.454Z,7.95
2022-10-17T09:11:15.757Z,7.05
2022-10-17T09:13:58.114Z,7.93
2022-10-17T09:16:55.848Z,6.88
2022-10-17T09:19:29.716Z,5.77
2022-10-17T09:22:02.908Z,7.22
2022-10-17T09:24:40.879Z,6.38
2022-10-17T09:29:50.204Z,6.60
2022-10-17T09:32:23.528Z,6.78
2022-10-17T09:34:53.196Z,6.78
2022-10-17T09:37:31.351Z,7.50
2022-10-17T09:39:59.800Z,7.20
2022-10-17T09:42:29.090Z,6.82
2022-10-17T09:45:13.175Z,6.32
2022-10-17T09:47:47.704Z,6.82
2022-10-17T09:50:23.127Z,7.07
2022-10-17T09:52:54.697Z,7.60
2022-10-17T09:55:32.910Z,8.15
2022-10-17T09:58:03.437Z,8.77
2022-10-17T10:00:33.597Z,8.27
2022-10-17T10:03:20.070Z,9.05
2022-10-17T10:06:03.961Z,8.43
2022-10-17T10:08:36.271Z,7.07
2022-10-17T10:11:07.875Z,6.70
2022-10-17T10:13:40.386Z,6.93
2022-10-17T10:16:19.238Z,7.88
2022-10-17T10:21:22.557Z,7.22
2022-10-17T10:24:14.639Z,7.28
2022-10-17T10:26:47.139Z,9.20
2022-10-17T10:29:31.155Z,8.40
2022-10-17T10:32:10.439Z,7.82
2022-10-17T10:34:45.540Z,7.50
2022-10-17T10:37:21.420Z,8.38
2022-10-17T10:39:53.403Z,8.80
2022-10-17T10:42:28.881Z,7.70
2022-10-17T10:45:03.038Z,8.02
2022-10-17T10:47:34.076Z,8.07
2022-10-17T10:50:24.709Z,8.48
2022-10-17T10:53:11.430Z,7.97
2022-10-17T10:55:46.233Z,9.07
2022-10-17T10:58:27.713Z,8.45
2022-10-17T11:00:57.885Z,8.48
2022-10-17T11:03:33.820Z,8.65
2022-10-17T11:06:06.593Z,8.02
2022-10-17T11:08:39.974Z,8.90
2022-10-17T11:11:18.383Z,8.75
2022-10-17T11:13:54.067Z,7.95
2022-10-17T11:16:34.766Z,8.05
2022-10-17T11:19:13.842Z,8.15
2022-10-17T11:21:48.957Z,7.85
2022-10-17T11:24:25.187Z,8.25
2022-10-17T11:27:00.098Z,7.22
2022-10-17T11:29:31.267Z,7.85
2022-10-17T11:32:03.349Z,8.32
2022-10-17T11:34:37.806Z,8.75
2022-10-17T11:37:15.200Z,8.25
2022-10-17T11:39:49.570Z,8.25
2022-10-17T11:42:25.135Z,8.35
2022-10-17T11:45:03.207Z,8.45
2022-10-17T11:47:38.699Z,7.95
2022-10-17T11:53:14.725Z,7.95
2022-10-17T11:55:44.778Z,7.40
2022-10-17T11:58:31.099Z,7.50
2022-10-17T12:01:09.149Z,7.88
2022-10-17T12:03:54.159Z,9.13
2022-10-17T12:06:33.611Z,8.35
2022-10-17T12:09:08.567Z,8.60
2022-10-17T12:11:46.734Z,8.15
2022-10-17T12:14:45.206Z,9.05
2022-10-17T12:17:35.640Z,8.98
2022-10-17T12:20:28.645Z,9.85
2022-10-17T12:23:00.760Z,9.43
2022-10-17T12:25:33.841Z,8.55
2022-10-17T12:28:14.514Z,8.18
2022-10-17T12:31:03.527Z,9.10
2022-10-17T12:33:36.159Z,9.18
2022-10-17T12:36:47.444Z,10.45
2022-10-17T12:39:44.099Z,9.93
2022-10-17T12:42:51.579Z,9.73
2022-10-17T12:45:51.547Z,9.75
2022-10-17T12:48:59.702Z,9.70
2022-10-17T12:51:35.706Z,9.38
2022-10-17T12:54:13.198Z,9.65
2022-10-17T12:56:43.880Z,9.80
2022-10-17T12:59:17.202Z,8.45
2022-10-17T13:01:48.817Z,9.50
2022-10-17T13:04:18.936Z,8.27
2022-10-17T13:06:51.255Z,9.68
2022-10-17T13:09:27.164Z,10.88
2022-10-17T13:11:58.364Z,9.23
2022-10-17T13:14:28.280Z,9.57
2022-10-17T13:16:58.617Z,8.93
2022-10-17T13:19:31.600Z,10.13
2022-10-17T13:22:06.784Z,9.65
2022-10-17T13:24:37.677Z,9.40
2022-10-17T13:27:07.410Z,9.73
2022-10-17T13:29:35.910Z,9.68
2022-10-17T13:32:06.812Z,10.32
2022-10-17T13:34:37.460Z,9.88
2022-10-17T13:37:09.768Z,9.43
2022-10-17T13:39:54.808Z,9.85
2022-10-17T13:42:28.025Z,10.10
2022-10-17T13:44:57.540Z,10.00
2022-10-17T13:47:29.436Z,9.70
2022-10-17T13:49:59.222Z,9.48
2022-10-17T13:52:31.197Z,9.73
2022-10-17T13:55:11.797Z,10.48
2022-10-17T13:57:42.923Z,10.85
2022-10-17T14:00:20.283Z,9.95
2022-10-17T14:02:49.606Z,9.90
2022-10-17T14:05:20.726Z,9.98
2022-10-17T14:08:13.044Z,9.38
2022-10-17T14:10:46.344Z,9.75
2022-10-17T14:13:23.448Z,10.45
2022-10-17T14:15:54.007Z,9.70
2022-10-17T14:18:26.349Z,9.77
2022-10-17T14:23:46.162Z,9.93
2022-10-17T14:26:17.308Z,10.57
2022-10-17T14:28:49.564Z,10.25
2022-10-17T14:31:32.374Z,10.30
2022-10-17T14:34:02.982Z,8.50
2022-10-17T14:36:34.534Z,8.93
2022-10-17T14:39:04.835Z,10.25
2022-10-17T14:41:44.687Z,10.05
2022-10-17T14:44:22.055Z,9.93
2022-10-17T14:46:54.392Z,9.32
2022-10-17T14:49:28.057Z,9.60
2022-10-17T14:52:27.480Z,10.27
2022-10-17T14:54:58.683Z,10.70
2022-10-17T14:57:31.125Z,10.27
2022-10-17T14:59:59.856Z,10.80
2022-10-17T15:02:31.691Z,10.65
2022-10-17T15:05:00.277Z,10.23
2022-10-17T15:07:29.608Z,10.10
2022-10-17T15:09:59.540Z,11.00
2022-10-17T15:12:28.424Z,10.65
2022-10-17T15:14:56.968Z,10.10
2022-10-17T15:17:27.567Z,9.38
2022-10-17T15:19:56.813Z,10.32
2022-10-17T15:22:25.952Z,10.20
2022-10-17T15:24:54.508Z,10.13
2022-10-17T15:27:26.510Z,10.13
2022-10-17T15:29:55.744Z,9.90
2022-10-17T15:32:24.931Z,11.05
2022-10-17T15:34:53.408Z,10.18
2022-10-17T15:37:23.564Z,10.30
2022-10-17T15:39:54.634Z,9.80
2022-10-17T15:42:29.496Z,10.70
2022-10-17T15:45:01.359Z,10.55
2022-10-17T15:47:34.570Z,10.40
2022-10-17T15:50:04.020Z,11.07
2022-10-17T15:52:32.813Z,10.60
2022-10-17T15:55:04.287Z,10.18
2022-10-17T15:57:39.310Z,10.40
2022-10-17T16:00:16.675Z,10.57
2022-10-17T16:02:45.922Z,11.00
2022-10-17T16:05:17.425Z,10.35
2022-10-17T16:07:46.978Z,9.90
2022-10-17T16:10:15.781Z,10.02
2022-10-17T16:12:45.982Z,10.23
2022-10-17T16:15:18.852Z,11.02
2022-10-17T16:17:47.595Z,10.38
2022-10-17T16:20:16.634Z,10.30
2022-10-17T16:22:45.980Z,10.00
2022-10-17T16:25:27.008Z,10.23
2022-10-17T16:27:58.944Z,10.80
2022-10-17T16:30:30.482Z,10.63
2022-10-17T16:32:59.170Z,10.73
2022-10-17T16:35:33.146Z,10.68
2022-10-17T16:38:06.421Z,10.13
2022-10-17T16:40:35.307Z,10.23
2022-10-17T16:43:05.120Z,9.82
2022-10-17T16:45:34.013Z,11.00
2022-10-17T16:48:02.454Z,10.45
2022-10-17T16:50:37.636Z,11.02
2022-10-17T16:53:07.788Z,13.77
2022-10-17T16:55:36.329Z,10.50
2022-10-17T16:58:08.439Z,10.48
2022-10-17T17:00:37.053Z,9.52
2022-10-17T17:03:05.700Z,10.93
2022-10-17T17:05:34.270Z,11.07
2022-10-17T17:08:03.990Z,10.27
2022-10-17T17:10:35.454Z,10.85
2022-10-17T17:13:05.746Z,10.10
2022-10-17T17:15:34.371Z,10.73
2022-10-17T17:18:05.453Z,11.13
2022-10-17T17:20:35.080Z,10.45
2022-10-17T17:25:32.131Z,10.15
2022-10-17T17:28:01.223Z,10.77
2022-10-17T17:30:31.353Z,10.05
2022-10-17T17:33:00.707Z,9.95
2022-10-17T17:35:30.758Z,11.02
2022-10-17T17:37:59.471Z,10.20
2022-10-17T17:40:27.991Z,10.88
2022-10-17T17:42:58.773Z,10.88
2022-10-17T17:45:27.368Z,10.52
2022-10-17T17:47:57.859Z,10.57
2022-10-17T17:50:26.582Z,11.35
2022-10-17T17:52:56.676Z,11.77
2022-10-17T17:55:25.518Z,11.25
2022-10-17T18:00:22.806Z,11.30
2022-10-17T18:02:51.491Z,10.43
2022-10-17T18:05:21.672Z,11.15
2022-10-17T18:07:50.495Z,12.10
2022-10-17T18:10:19.356Z,11.48
2022-10-17T18:15:16.931Z,10.65
2022-10-17T18:17:45.765Z,11.50
2022-10-17T18:20:14.519Z,13.05
2022-10-17T18:22:45.035Z,11.15
2022-10-17T18:25:14.135Z,13.82
2022-10-17T18:27:42.941Z,14.07
2022-10-17T18:30:15.053Z,12.70
2022-10-17T18:32:44.153Z,13.23
2022-10-17T18:35:12.888Z,12.68
2022-10-17T18:40:16.837Z,11.60
2022-10-17T18:42:45.556Z,12.82
2022-10-17T18:45:14.477Z,14.52
2022-10-17T18:50:13.806Z,11.30
2022-10-17T18:52:45.306Z,11.88
2022-10-17T18:55:16.031Z,12.23
2022-10-17T18:57:44.642Z,12.80
2022-10-17T19:00:14.489Z,11.95
2022-10-17T19:02:43.262Z,11.93
2022-10-17T19:07:40.187Z,11.75
2022-10-17T19:10:10.843Z,11.70
2022-10-17T19:12:41.873Z,10.98
2022-10-17T19:15:10.722Z,11.50
2022-10-17T19:20:08.657Z,10.98
2022-10-17T19:22:37.095Z,10.70
2022-10-17T19:25:06.038Z,11.13
2022-10-17T19:30:04.380Z,11.57
2022-10-17T19:32:33.176Z,11.70
2022-10-17T19:35:01.877Z,11.18
2022-10-17T19:37:32.296Z,12.10
2022-10-17T19:40:01.288Z,13.73
2022-10-17T19:42:32.283Z,13.00
2022-10-17T19:45:01.125Z,11.75
2022-10-17T19:47:32.149Z,12.18
2022-10-17T19:50:00.833Z,12.20
2022-10-17T19:52:29.938Z,12.48
2022-10-17T19:54:58.911Z,12.43
2022-10-17T19:57:27.440Z,11.48
2022-10-17T19:59:56.370Z,12.05
2022-10-17T20:05:17.173Z,11.63
2022-10-17T20:07:43.543Z,11.60
2022-10-17T20:10:12.189Z,11.77
2022-10-17T20:12:40.821Z,10.75
2022-10-17T20:15:09.741Z,11.57
2022-10-17T20:20:10.124Z,11.88
2022-10-17T20:22:38.773Z,11.02
2022-10-17T20:25:10.817Z,11.30
2022-10-17T20:27:40.909Z,11.68
2022-10-17T20:30:10.318Z,12.13
2022-10-17T20:32:40.142Z,11.02
2022-10-17T20:35:10.946Z,10.82
2022-10-17T20:37:42.585Z,10.98
2022-10-17T20:43:01.184Z,10.55
2022-10-17T20:45:43.787Z,10.32
2022-10-17T20:50:47.977Z,10.13
2022-10-17T20:53:36.169Z,10.85
2022-10-17T20:56:10.611Z,11.82
2022-10-17T20:58:39.620Z,11.35
2022-10-17T21:03:42.384Z,10.75
2022-10-17T21:06:16.626Z,10.75
2022-10-17T21:08:45.907Z,10.43
2022-10-17T21:11:17.519Z,11.63
2022-10-17T21:13:46.989Z,10.55
2022-10-17T21:16:18.523Z,9.95
2022-10-17T21:18:47.294Z,11.00
2022-10-17T21:21:19.859Z,10.73
2022-10-17T21:23:50.513Z,10.65
2022-10-17T21:26:19.621Z,11.25
2022-10-17T21:28:50.133Z,9.95
2022-10-17T21:31:21.751Z,10.15
2022-10-17T21:33:52.259Z,10.73
2022-10-17T21:36:23.020Z,9.35
2022-10-17T21:38:53.615Z,10.35
2022-10-17T21:41:24.361Z,8.50
2022-10-17T21:43:54.638Z,9.65
2022-10-17T21:46:23.529Z,10.75
2022-10-17T21:48:52.864Z,10.25
2022-10-17T21:51:25.580Z,9.45
2022-10-17T21:53:55.879Z,11.32
2022-10-17T21:56:29.047Z,10.98
2022-10-17T21:58:58.593Z,10.32
2022-10-17T22:01:29.183Z,10.10
2022-10-17T22:04:00.148Z,10.88
2022-10-17T22:06:47.116Z,10.68
2022-10-17T22:09:17.442Z,10.20
2022-10-17T22:11:47.923Z,10.55
2022-10-17T22:14:18.833Z,10.30
2022-10-17T22:16:48.046Z,10.00
2022-10-17T22:19:20.031Z,10.68
2022-10-17T22:21:50.478Z,11.05
2022-10-17T22:26:50.345Z,10.38
2022-10-17T22:29:18.802Z,9.70
2022-10-17T22:31:47.387Z,10.90
2022-10-17T22:34:17.122Z,10.45
2022-10-17T22:36:47.797Z,9.25
2022-10-17T22:39:17.887Z,10.75
2022-10-17T22:41:46.367Z,10.00
2022-10-17T22:44:14.804Z,11.25
2022-10-17T22:46:43.326Z,9.90
2022-10-17T22:49:11.860Z,9.73
2022-10-17T22:51:40.250Z,9.70
2022-10-17T22:54:09.026Z,9.10
2022-10-17T22:56:38.805Z,9.65
2022-10-17T22:59:07.472Z,10.43
2022-10-17T23:01:35.879Z,10.00
2022-10-17T23:04:04.369Z,9.40
2022-10-17T23:06:33.090Z,8.77
2022-10-17T23:09:01.570Z,9.48
2022-10-17T23:11:30.015Z,9.27
2022-10-17T23:13:59.905Z,9.10
2022-10-17T23:16:28.338Z,9.73
2022-10-17T23:18:56.704Z,9.90
2022-10-17T23:21:25.077Z,9.35
2022-10-17T23:23:53.433Z,8.52
2022-10-17T23:26:21.853Z,10.15
2022-10-17T23:28:55.498Z,8.70
2022-10-17T23:31:25.434Z,9.82
2022-10-17T23:33:55.999Z,9.85
2022-10-17T23:36:27.456Z,9.95
2022-10-17T23:38:58.448Z,9.02
2022-10-17T23:41:27.367Z,8.52
2022-10-17T23:43:55.717Z,9.35
2022-10-17T23:46:25.659Z,9.25
2022-10-17T23:48:54.319Z,9.07
2022-10-17T23:51:23.020Z,8.85
2022-10-17T23:53:51.395Z,9.10
2022-10-17T23:56:19.858Z,8.45
2022-10-17T23:58:48.465Z,8.30
